createdAt,value
2024-03-16T00:00:13.542Z,43.00
2024-03-16T00:02:40.984Z,28.48
2024-03-16T00:05:09.677Z,21.92
2024-03-16T00:07:37.205Z,29.23
2024-03-16T00:10:04.779Z,39.80
2024-03-16T00:12:32.216Z,30.65
2024-03-16T00:14:59.620Z,34.17
2024-03-16T00:17:26.969Z,27.88
2024-03-16T00:19:54.404Z,41.95
2024-03-16T00:22:22.764Z,21.23
2024-03-16T00:24:51.032Z,29.85
2024-03-16T00:29:47.060Z,30.35
2024-03-16T00:32:14.448Z,40.22
2024-03-16T00:34:41.830Z,33.05
2024-03-16T00:37:10.285Z,37.13
2024-03-16T00:39:37.754Z,36.47
2024-03-16T00:42:05.175Z,72.88
2024-03-16T00:44:32.561Z,38.95
2024-03-16T00:46:59.942Z,38.00
2024-03-16T00:49:27.437Z,31.58
2024-03-16T00:51:54.857Z,43.58
2024-03-16T00:54:22.299Z,33.10
2024-03-16T00:56:51.536Z,31.08
2024-03-16T00:59:19.262Z,38.17
2024-03-16T01:01:46.710Z,29.50
2024-03-16T01:04:14.194Z,37.83
2024-03-16T01:06:41.762Z,41.63
2024-03-16T01:09:09.223Z,20.05
2024-03-16T01:11:39.012Z,35.08
2024-03-16T01:14:06.484Z,43.17
2024-03-16T01:16:33.872Z,29.95
2024-03-16T01:19:01.295Z,52.05
2024-03-16T01:21:28.845Z,46.90
2024-03-16T01:23:56.245Z,28.80
2024-03-16T01:26:24.014Z,62.05
2024-03-16T01:28:51.944Z,42.22
2024-03-16T01:31:19.307Z,39.17
2024-03-16T01:33:46.798Z,29.67
2024-03-16T01:36:15.517Z,30.55
2024-03-16T01:38:43.136Z,24.08
2024-03-16T01:41:10.570Z,42.92
2024-03-16T01:43:38.020Z,58.80
2024-03-16T01:46:05.820Z,29.27
2024-03-16T01:48:33.355Z,33.42
2024-03-16T01:51:01.273Z,31.60
2024-03-16T01:53:28.696Z,44.97
2024-03-16T01:55:56.105Z,36.38
2024-03-16T01:58:23.465Z,41.35
2024-03-16T02:00:50.969Z,38.80
2024-03-16T02:03:18.385Z,39.00
2024-03-16T02:05:47.784Z,49.08
2024-03-16T02:08:17.344Z,52.78
2024-03-16T02:10:44.853Z,38.63
2024-03-16T02:13:13.009Z,56.13
2024-03-16T02:15:40.536Z,50.83
2024-03-16T02:18:11.195Z,46.95
2024-03-16T02:20:38.890Z,53.22
2024-03-16T02:23:06.277Z,54.35
2024-03-16T02:25:33.730Z,54.40
2024-03-16T02:28:01.239Z,47.78
2024-03-16T02:30:28.770Z,54.95
2024-03-16T02:32:56.285Z,50.88
2024-03-16T02:35:24.385Z,57.75
2024-03-16T02:37:51.788Z,42.90
2024-03-16T02:40:19.305Z,46.72
2024-03-16T02:42:46.763Z,65.13
2024-03-16T02:45:14.169Z,41.80
2024-03-16T02:47:41.572Z,36.55
2024-03-16T02:50:11.759Z,41.72
2024-03-16T02:52:39.198Z,36.92
2024-03-16T02:55:07.024Z,45.67
2024-03-16T02:57:35.515Z,44.60
2024-03-16T03:02:33.177Z,52.38
2024-03-16T03:05:00.580Z,49.13
2024-03-16T03:07:28.678Z,52.83
2024-03-16T03:09:56.079Z,50.15
2024-03-16T03:12:25.907Z,63.28
2024-03-16T03:14:53.356Z,45.05
2024-03-16T03:17:20.813Z,59.05
2024-03-16T03:19:48.201Z,46.17
2024-03-16T03:22:15.637Z,45.60
2024-03-16T03:24:43.119Z,50.10
2024-03-16T03:27:10.922Z,53.13
2024-03-16T03:29:38.320Z,47.65
2024-03-16T03:32:05.882Z,54.85
2024-03-16T03:34:33.321Z,34.90
2024-03-16T03:37:00.759Z,25.33
2024-03-16T03:39:28.168Z,18.58
2024-03-16T03:41:55.756Z,30.73
2024-03-16T03:44:25.664Z,27.05
2024-03-16T03:46:53.472Z,19.25
2024-03-16T03:49:41.574Z,33.03
2024-03-16T03:52:08.981Z,27.02
2024-03-16T03:54:36.522Z,15.63
2024-03-16T03:57:05.770Z,12.38
2024-03-16T03:59:33.315Z,19.98
2024-03-16T04:02:00.772Z,27.48
2024-03-16T04:04:28.160Z,16.23
2024-03-16T04:06:55.511Z,10.38
2024-03-16T04:09:22.882Z,8.60
2024-03-16T04:11:50.195Z,9.43
2024-03-16T04:14:17.615Z,6.82
2024-03-16T04:16:44.974Z,8.75
2024-03-16T04:19:12.410Z,9.88
2024-03-16T04:21:39.937Z,11.82
2024-03-16T04:24:09.807Z,12.07
2024-03-16T04:26:37.205Z,13.95
2024-03-16T04:29:04.475Z,10.48
2024-03-16T04:31:33.365Z,6.75
2024-03-16T04:34:00.766Z,9.15
2024-03-16T04:36:28.200Z,15.77
2024-03-16T04:38:55.564Z,5.32
2024-03-16T04:41:22.885Z,17.00
2024-03-16T04:43:50.260Z,12.05
2024-03-16T04:46:17.748Z,12.55
2024-03-16T04:48:45.279Z,17.65
2024-03-16T04:51:16.072Z,13.88
2024-03-16T04:53:43.511Z,9.35
2024-03-16T04:56:10.866Z,12.73
2024-03-16T04:58:38.218Z,13.38
2024-03-16T05:01:07.019Z,14.52
2024-03-16T05:03:34.471Z,18.85
2024-03-16T05:06:01.861Z,21.38
2024-03-16T05:08:30.935Z,11.75
2024-03-16T05:11:00.344Z,12.88
2024-03-16T05:13:32.646Z,8.90
2024-03-16T05:16:08.025Z,15.73
2024-03-16T05:18:35.686Z,10.07
2024-03-16T05:21:03.046Z,13.25
2024-03-16T05:23:30.383Z,11.85
2024-03-16T05:26:00.503Z,14.32
2024-03-16T05:28:28.234Z,8.57
2024-03-16T05:30:56.259Z,19.80
2024-03-16T05:33:23.623Z,11.20
2024-03-16T05:35:50.979Z,11.27
2024-03-16T05:38:18.286Z,9.75
2024-03-16T05:40:47.402Z,7.85
2024-03-16T05:43:14.825Z,15.43
2024-03-16T05:45:42.810Z,5.95
2024-03-16T05:48:10.282Z,6.32
2024-03-16T05:50:37.709Z,6.22
2024-03-16T05:53:07.577Z,4.55
2024-03-16T05:55:34.915Z,5.45
2024-03-16T05:58:02.375Z,8.35
2024-03-16T06:00:30.825Z,9.13
2024-03-16T06:02:58.175Z,8.70
2024-03-16T06:05:25.531Z,9.85
2024-03-16T06:07:52.835Z,8.98
2024-03-16T06:10:20.166Z,6.05
2024-03-16T06:12:47.601Z,12.98
2024-03-16T06:15:14.934Z,10.93
2024-03-16T06:17:42.273Z,10.93
2024-03-16T06:20:12.014Z,5.35
2024-03-16T06:22:39.359Z,11.60
2024-03-16T06:25:07.233Z,2.15
2024-03-16T06:27:41.670Z,3.00
2024-03-16T06:30:09.206Z,2.55
2024-03-16T06:32:40.006Z,11.68
2024-03-16T06:35:07.530Z,8.73
2024-03-16T06:37:38.321Z,4.38
2024-03-16T06:40:06.267Z,7.43
2024-03-16T06:42:33.670Z,9.43
2024-03-16T06:45:01.368Z,6.75
2024-03-16T06:47:29.093Z,10.18
2024-03-16T06:49:56.549Z,14.95
2024-03-16T06:52:25.906Z,6.70
2024-03-16T06:54:56.104Z,11.07
2024-03-16T06:57:23.453Z,13.27
2024-03-16T06:59:50.794Z,8.05
2024-03-16T07:02:18.234Z,6.05
2024-03-16T07:04:46.173Z,5.57
2024-03-16T07:07:13.560Z,2.50
2024-03-16T07:09:41.028Z,11.93
2024-03-16T07:12:08.659Z,3.13
2024-03-16T07:14:35.986Z,5.13
2024-03-16T07:17:04.032Z,19.50
2024-03-16T07:19:32.182Z,13.18
2024-03-16T07:24:28.062Z,7.72
2024-03-16T07:26:55.506Z,7.43
2024-03-16T07:29:22.922Z,6.45
2024-03-16T07:31:52.727Z,9.05
2024-03-16T07:34:20.478Z,6.25
2024-03-16T07:36:47.881Z,7.97
2024-03-16T07:39:15.211Z,9.70
2024-03-16T07:41:42.545Z,7.32
2024-03-16T07:44:09.830Z,4.75
2024-03-16T07:46:37.202Z,7.45
2024-03-16T07:49:09.433Z,8.82
2024-03-16T07:51:37.969Z,8.07
2024-03-16T07:54:05.500Z,10.93
2024-03-16T07:56:32.830Z,5.75
2024-03-16T07:59:00.147Z,12.93
2024-03-16T08:01:27.585Z,23.23
2024-03-16T08:03:54.962Z,12.98
2024-03-16T08:06:23.039Z,18.95
2024-03-16T08:08:51.409Z,19.25
2024-03-16T08:11:18.814Z,10.65
2024-03-16T08:13:46.793Z,15.88
2024-03-16T08:16:14.233Z,9.55
2024-03-16T08:18:41.636Z,8.35
2024-03-16T08:21:09.400Z,19.30
2024-03-16T08:23:36.783Z,9.98
2024-03-16T08:26:07.190Z,8.93
2024-03-16T08:28:34.968Z,14.15
2024-03-16T08:31:02.426Z,14.85
2024-03-16T08:33:29.808Z,20.92
2024-03-16T08:35:57.240Z,17.25
2024-03-16T08:38:25.468Z,9.43
2024-03-16T08:40:53.366Z,14.07
2024-03-16T08:43:20.818Z,11.40
2024-03-16T08:45:48.354Z,17.50
2024-03-16T08:48:15.800Z,17.23
2024-03-16T08:50:43.272Z,9.52
2024-03-16T08:53:10.631Z,6.97
2024-03-16T08:55:40.615Z,14.80
2024-03-16T08:58:09.315Z,12.43
2024-03-16T09:00:37.103Z,16.65
2024-03-16T09:03:06.162Z,10.00
2024-03-16T09:05:35.148Z,19.45
2024-03-16T09:08:02.700Z,13.32
2024-03-16T09:10:30.200Z,17.20
2024-03-16T09:12:57.568Z,20.50
2024-03-16T09:15:24.876Z,13.85
2024-03-16T09:17:52.238Z,13.10
2024-03-16T09:20:19.625Z,13.07
2024-03-16T09:22:47.098Z,14.55
2024-03-16T09:25:14.601Z,14.63
2024-03-16T09:27:42.240Z,16.45
2024-03-16T09:30:10.146Z,15.35
2024-03-16T09:32:38.375Z,26.73
2024-03-16T09:35:08.027Z,10.77
2024-03-16T09:37:35.348Z,23.60
2024-03-16T09:40:02.972Z,25.10
2024-03-16T09:42:31.950Z,18.15
